Time;durP1;ratioP1;P1;durP2;ratioP2;P2;SDS_P1;SDS_P2;PMS_P1;PMS_P2;Temp;Humidity;BMP_temperature;BMP_pressure;BME280_temperature;BME280_humidity;BME280_pressure;Samples;Min_cycle;Max_cycle;Signal;HPM_P1;HPM_P2
2022/02/21 00:00:44;;;;;;;17.25;8.02;;;;;;;;;;4845705;29;20026;-80
2022/02/21 00:03:10;;;;;;;12.27;6.38;;;;;;;;;;4829151;29;20033;-79
2022/02/21 00:05:37;;;;;;;9.48;5.90;;;;;;;;;;4846110;29;20045;-81
2022/02/21 00:08:04;;;;;;;11.98;6.35;;;;;;;;;;4845242;29;20110;-81
2022/02/21 00:10:30;;;;;;;10.02;6.60;;;;;;;;;;4828862;29;20488;-80
2022/02/21 00:12:56;;;;;;;10.32;6.35;;;;;;;;;;4829031;29;20483;-79
2022/02/21 00:15:25;;;;;;;11.70;6.35;;;;;;;;;;4845783;29;20083;-79
2022/02/21 00:17:52;;;;;;;9.68;6.03;;;;;;;;;;4828979;29;20066;-79
2022/02/21 00:20:18;;;;;;;12.02;6.28;;;;;;;;;;4829630;29;20030;-79
2022/02/21 00:22:44;;;;;;;10.60;5.75;;;;;;;;;;4829211;29;20117;-79
2022/02/21 00:25:11;;;;;;;10.57;6.35;;;;;;;;;;4829380;29;20052;-79
2022/02/21 00:27:37;;;;;;;12.48;6.75;;;;;;;;;;4845876;29;20022;-79
2022/02/21 00:30:05;;;;;;;10.65;6.05;;;;;;;;;;4846029;29;20034;-79
2022/02/21 00:32:31;;;;;;;9.75;5.90;;;;;;;;;;4831050;29;20030;-79
2022/02/21 00:34:57;;;;;;;11.73;6.53;;;;;;;;;;4844486;29;20093;-79
2022/02/21 00:37:24;;;;;;;10.68;6.38;;;;;;;;;;4852531;29;20041;-80
2022/02/21 00:39:50;;;;;;;10.15;6.55;;;;;;;;;;4835450;29;20037;-80
2022/02/21 00:42:21;;;;;;;9.70;5.60;;;;;;;;;;4847302;29;20395;-79
2022/02/21 00:44:48;;;;;;;10.68;6.45;;;;;;;;;;4827833;29;20030;-80
2022/02/21 00:47:15;;;;;;;10.77;6.35;;;;;;;;;;4827952;29;20122;-79
2022/02/21 00:49:41;;;;;;;11.30;6.60;;;;;;;;;;4827941;29;20045;-80
2022/02/21 00:52:07;;;;;;;11.27;6.90;;;;;;;;;;4827863;29;20487;-79
2022/02/21 00:54:34;;;;;;;12.80;7.35;;;;;;;;;;4844335;29;20491;-79
2022/02/21 00:57:00;;;;;;;12.15;7.20;;;;;;;;;;4827921;29;20034;-79
2022/02/21 00:59:26;;;;;;;11.07;7.35;;;;;;;;;;4844320;29;20030;-79
2022/02/21 01:02:14;;;;;;;13.52;7.65;;;;;;;;;;4827496;29;20041;-79
2022/02/21 01:04:40;;;;;;;12.80;7.95;;;;;;;;;;4844446;29;20083;-78
2022/02/21 01:07:06;;;;;;;13.68;7.97;;;;;;;;;;4844396;29;20448;-81
2022/02/21 01:09:33;;;;;;;14.52;8.02;;;;;;;;;;4827552;29;20075;-79
2022/02/21 01:11:59;;;;;;;14.25;8.45;;;;;;;;;;4844298;29;20034;-78
2022/02/21 01:14:25;;;;;;;12.93;7.93;;;;;;;;;;4844359;29;20037;-79
2022/02/21 01:16:51;;;;;;;15.73;8.50;;;;;;;;;;4827369;29;20048;-78
2022/02/21 01:19:17;;;;;;;14.55;9.63;;;;;;;;;;4843846;29;20037;-80
2022/02/21 01:21:44;;;;;;;14.10;8.68;;;;;;;;;;4827091;29;20030;-79
2022/02/21 01:24:10;;;;;;;13.48;8.43;;;;;;;;;;4844042;29;20033;-79
2022/02/21 01:26:36;;;;;;;13.45;7.50;;;;;;;;;;4827400;29;20102;-80
2022/02/21 01:29:02;;;;;;;13.90;8.70;;;;;;;;;;4827391;29;20441;-85
2022/02/21 01:31:29;;;;;;;15.80;8.43;;;;;;;;;;4844119;29;20061;-78
2022/02/21 01:33:55;;;;;;;15.27;7.80;;;;;;;;;;4827661;29;20038;-79
2022/02/21 01:36:22;;;;;;;12.38;8.13;;;;;;;;;;4843992;29;20048;-83
2022/02/21 01:38:49;;;;;;;13.38;7.50;;;;;;;;;;4827548;29;20029;-80
2022/02/21 01:41:15;;;;;;;13.55;8.60;;;;;;;;;;4827334;29;20082;-80
2022/02/21 01:43:41;;;;;;;14.75;7.97;;;;;;;;;;4827612;29;20529;-80
2022/02/21 01:46:07;;;;;;;15.38;8.35;;;;;;;;;;4843717;29;20109;-78
2022/02/21 01:48:33;;;;;;;15.43;8.73;;;;;;;;;;4827359;29;20034;-79
2022/02/21 01:51:00;;;;;;;14.73;8.68;;;;;;;;;;4827580;29;20061;-80
2022/02/21 01:53:26;;;;;;;13.85;8.50;;;;;;;;;;4851851;29;20096;-79
2022/02/21 01:55:53;;;;;;;14.18;9.15;;;;;;;;;;4845782;29;20061;-80
2022/02/21 01:58:19;;;;;;;16.48;9.63;;;;;;;;;;4845562;29;20082;-79
2022/02/21 02:00:46;;;;;;;18.50;10.00;;;;;;;;;;4862316;29;20035;-80
2022/02/21 02:03:12;;;;;;;16.60;10.50;;;;;;;;;;4845980;29;20060;-80
2022/02/21 02:05:38;;;;;;;16.45;9.52;;;;;;;;;;4862466;29;20112;-79
2022/02/21 02:08:05;;;;;;;17.10;10.18;;;;;;;;;;4862360;29;20038;-79
2022/02/21 02:10:31;;;;;;;16.88;10.65;;;;;;;;;;4846097;29;20450;-79
2022/02/21 02:12:58;;;;;;;16.58;10.48;;;;;;;;;;4848515;29;20140;-79
2022/02/21 02:15:25;;;;;;;16.10;9.98;;;;;;;;;;4849535;29;20021;-80
2022/02/21 02:17:51;;;;;;;15.77;10.07;;;;;;;;;;4844902;29;20045;-79
2022/02/21 02:20:18;;;;;;;16.23;9.15;;;;;;;;;;4862040;29;20033;-82
2022/02/21 02:22:45;;;;;;;14.32;9.02;;;;;;;;;;4861387;29;20025;-79
2022/02/21 02:25:11;;;;;;;15.23;9.55;;;;;;;;;;4844682;29;20447;-78
2022/02/21 02:27:37;;;;;;;15.57;9.45;;;;;;;;;;4844888;29;20033;-80
2022/02/21 02:30:04;;;;;;;16.17;9.43;;;;;;;;;;4861400;29;20429;-80
2022/02/21 02:32:30;;;;;;;16.27;9.60;;;;;;;;;;4845248;29;20505;-79
2022/02/21 02:34:57;;;;;;;15.38;9.23;;;;;;;;;;4844602;29;20087;-79
2022/02/21 02:37:23;;;;;;;17.00;9.82;;;;;;;;;;4861267;29;20038;-80
2022/02/21 02:39:50;;;;;;;16.98;10.20;;;;;;;;;;4845637;29;20038;-84
2022/02/21 02:42:21;;;;;;;18.38;10.63;;;;;;;;;;4845481;29;20174;-85
2022/02/21 02:44:48;;;;;;;18.88;10.98;;;;;;;;;;4845290;29;20037;-80
2022/02/21 02:47:14;;;;;;;17.70;10.88;;;;;;;;;;4845482;29;20029;-84
2022/02/21 02:49:41;;;;;;;15.95;9.98;;;;;;;;;;4845478;29;20060;-78
2022/02/21 02:52:08;;;;;;;17.20;10.20;;;;;;;;;;4844868;29;20102;-80
2022/02/21 02:54:34;;;;;;;16.20;10.10;;;;;;;;;;4844407;29;20526;-79
2022/02/21 02:57:00;;;;;;;16.13;10.45;;;;;;;;;;4845304;29;20045;-78
2022/02/21 02:59:27;;;;;;;20.13;10.68;;;;;;;;;;4844840;29;20029;-77
2022/02/21 03:01:54;;;;;;;17.58;10.35;;;;;;;;;;4844706;29;20399;-90
2022/02/21 03:04:20;;;;;;;18.33;10.73;;;;;;;;;;4844397;29;20053;-82
2022/02/21 03:06:47;;;;;;;18.13;10.48;;;;;;;;;;4844422;29;20033;-79
2022/02/21 03:09:13;;;;;;;17.42;10.57;;;;;;;;;;4844719;29;20506;-79
2022/02/21 03:11:39;;;;;;;16.95;10.15;;;;;;;;;;4844782;29;20033;-81
2022/02/21 03:14:06;;;;;;;18.95;9.60;;;;;;;;;;4844506;29;20039;-79
2022/02/21 03:16:32;;;;;;;16.48;9.70;;;;;;;;;;4844281;29;20042;-79
2022/02/21 03:18:59;;;;;;;17.38;9.88;;;;;;;;;;4861367;29;20392;-79
2022/02/21 03:21:25;;;;;;;18.50;9.55;;;;;;;;;;4844249;29;20041;-79
2022/02/21 03:23:51;;;;;;;15.73;10.10;;;;;;;;;;4843164;29;20034;-79
2022/02/21 03:26:17;;;;;;;17.75;10.27;;;;;;;;;;4859702;29;20387;-79
2022/02/21 03:28:44;;;;;;;17.98;10.18;;;;;;;;;;4843207;29;20445;-78
2022/02/21 03:31:11;;;;;;;21.20;9.80;;;;;;;;;;4843557;29;20057;-78
2022/02/21 03:33:37;;;;;;;18.15;10.35;;;;;;;;;;4844794;29;20112;-84
2022/02/21 03:36:04;;;;;;;19.70;10.13;;;;;;;;;;4844909;29;20040;-78
2022/02/21 03:38:30;;;;;;;16.38;10.40;;;;;;;;;;4844844;29;20391;-79
2022/02/21 03:40:56;;;;;;;18.70;10.55;;;;;;;;;;4844778;29;20030;-77
2022/02/21 03:43:22;;;;;;;18.92;10.20;;;;;;;;;;4844674;29;20033;-78
2022/02/21 03:45:48;;;;;;;18.42;9.93;;;;;;;;;;4844697;29;20529;-78
2022/02/21 03:48:16;;;;;;;23.98;10.20;;;;;;;;;;4844508;29;20034;-78
2022/02/21 03:50:42;;;;;;;18.65;10.23;;;;;;;;;;4845308;29;20030;-78
2022/02/21 03:53:08;;;;;;;18.20;10.63;;;;;;;;;;4842332;29;20592;-80
2022/02/21 03:55:34;;;;;;;18.08;10.52;;;;;;;;;;4830024;29;20026;-80
2022/02/21 03:58:00;;;;;;;22.48;10.80;;;;;;;;;;4829853;29;20038;-86
2022/02/21 04:00:27;;;;;;;17.65;11.07;;;;;;;;;;4830767;29;20026;-78
2022/02/21 04:02:53;;;;;;;20.17;12.18;;;;;;;;;;4830250;29;20034;-78
2022/02/21 04:05:22;;;;;;;20.70;11.20;;;;;;;;;;4829586;29;20121;-80
2022/02/21 04:07:49;;;;;;;20.13;11.93;;;;;;;;;;4845684;29;20026;-79
2022/02/21 04:10:16;;;;;;;19.50;11.57;;;;;;;;;;4828638;29;20388;-81
2022/02/21 04:12:43;;;;;;;23.27;11.70;;;;;;;;;;4828677;29;20026;-77
2022/02/21 04:15:09;;;;;;;20.40;11.88;;;;;;;;;;4828953;29;20191;-76
2022/02/21 04:17:41;;;;;;;16.10;10.23;;;;;;;;;;4828801;29;20045;-79
2022/02/21 04:20:09;;;;;;;19.58;11.25;;;;;;;;;;4828850;29;20067;-77
2022/02/21 04:22:35;;;;;;;20.38;11.70;;;;;;;;;;4828539;29;20030;-79
2022/02/21 04:25:01;;;;;;;20.30;10.57;;;;;;;;;;4829287;29;20037;-76
2022/02/21 04:27:28;;;;;;;17.05;10.50;;;;;;;;;;4829555;29;20037;-78
2022/02/21 04:29:54;;;;;;;20.33;11.07;;;;;;;;;;4828708;29;20129;-78
2022/02/21 04:32:20;;;;;;;19.05;11.70;;;;;;;;;;4828779;29;20030;-81
2022/02/21 04:34:46;;;;;;;20.52;10.68;;;;;;;;;;4828944;29;20483;-78
2022/02/21 04:37:15;;;;;;;22.65;12.38;;;;;;;;;;4828320;29;20042;-80
2022/02/21 04:39:41;;;;;;;18.20;11.43;;;;;;;;;;4845496;29;20030;-79
2022/02/21 04:42:07;;;;;;;20.27;11.27;;;;;;;;;;4845037;29;20072;-79
2022/02/21 04:44:34;;;;;;;20.00;11.82;;;;;;;;;;4828959;29;20058;-79
2022/02/21 04:47:00;;;;;;;21.70;11.75;;;;;;;;;;4828535;29;20045;-79
2022/02/21 04:49:26;;;;;;;18.00;10.25;;;;;;;;;;4828560;29;20026;-79
2022/02/21 04:51:52;;;;;;;19.23;10.52;;;;;;;;;;4828773;29;20393;-79
2022/02/21 04:54:18;;;;;;;19.90;10.90;;;;;;;;;;4859694;29;20065;-79
2022/02/21 04:56:45;;;;;;;18.25;11.38;;;;;;;;;;4846766;29;20045;-79
2022/02/21 04:59:11;;;;;;;18.55;11.23;;;;;;;;;;4846679;29;20390;-78
2022/02/21 05:01:37;;;;;;;17.63;10.75;;;;;;;;;;4846720;29;20388;-78
2022/02/21 05:04:04;;;;;;;19.80;11.45;;;;;;;;;;4845885;29;20026;-80
2022/02/21 05:06:30;;;;;;;17.55;10.52;;;;;;;;;;4863116;29;20056;-79
2022/02/21 05:08:58;;;;;;;19.23;11.18;;;;;;;;;;4846630;29;20033;-78
2022/02/21 05:11:24;;;;;;;20.23;11.80;;;;;;;;;;4846865;29;20105;-79
2022/02/21 05:13:50;;;;;;;22.75;12.13;;;;;;;;;;4863096;29;20029;-79
2022/02/21 05:16:16;;;;;;;19.83;11.20;;;;;;;;;;4846355;29;20503;-82
2022/02/21 05:18:42;;;;;;;16.88;9.98;;;;;;;;;;4846324;29;20052;-78
2022/02/21 05:21:09;;;;;;;18.98;10.13;;;;;;;;;;4846384;29;20384;-79
2022/02/21 05:23:35;;;;;;;52.75;22.98;;;;;;;;;;4847394;29;20032;-78
2022/02/21 05:26:01;;;;;;;30.05;14.48;;;;;;;;;;4848437;29;20471;-78
2022/02/21 05:28:28;;;;;;;42.03;19.27;;;;;;;;;;4868441;29;20034;-79
2022/02/21 05:30:55;;;;;;;25.48;13.73;;;;;;;;;;4847273;29;20029;-78
2022/02/21 05:33:21;;;;;;;35.25;17.23;;;;;;;;;;4855747;29;20112;-80
2022/02/21 05:35:47;;;;;;;19.38;11.10;;;;;;;;;;4864411;29;20029;-78
2022/02/21 05:38:13;;;;;;;23.50;11.82;;;;;;;;;;4863914;29;20394;-79
2022/02/21 05:40:39;;;;;;;38.80;17.35;;;;;;;;;;4864186;29;20108;-79
2022/02/21 05:43:05;;;;;;;26.75;13.23;;;;;;;;;;4863268;29;20045;-79
2022/02/21 05:45:31;;;;;;;21.33;11.48;;;;;;;;;;4846069;29;20567;-78
2022/02/21 05:47:57;;;;;;;41.20;17.80;;;;;;;;;;4845696;29;20033;-78
2022/02/21 05:50:23;;;;;;;23.60;12.57;;;;;;;;;;4845222;29;20033;-80
2022/02/21 05:52:50;;;;;;;58.40;22.65;;;;;;;;;;4868280;29;20093;-79
2022/02/21 05:55:16;;;;;;;25.55;12.70;;;;;;;;;;4845416;29;20057;-79
2022/02/21 05:57:42;;;;;;;39.22;16.95;;;;;;;;;;4845293;29;20048;-79
2022/02/21 06:00:10;;;;;;;29.17;14.90;;;;;;;;;;4845592;29;20086;-80
2022/02/21 06:02:36;;;;;;;28.10;14.40;;;;;;;;;;4845459;29;20186;-91
2022/02/21 06:05:02;;;;;;;31.20;17.60;;;;;;;;;;4846100;29;20036;-80
2022/02/21 06:07:28;;;;;;;20.73;12.95;;;;;;;;;;4845560;29;20117;-80
2022/02/21 06:09:54;;;;;;;21.77;12.35;;;;;;;;;;4841396;29;20125;-80
2022/02/21 06:12:20;;;;;;;24.83;15.70;;;;;;;;;;4850088;29;20030;-84
2022/02/21 06:14:47;;;;;;;21.17;12.18;;;;;;;;;;4843570;29;20172;-85
2022/02/21 06:17:14;;;;;;;23.15;12.40;;;;;;;;;;4827637;29;20045;-83
2022/02/21 06:19:40;;;;;;;20.50;12.05;;;;;;;;;;4827726;29;20054;-86
2022/02/21 06:22:06;;;;;;;22.17;13.23;;;;;;;;;;4827912;29;20061;-85
2022/02/21 06:24:32;;;;;;;19.20;12.02;;;;;;;;;;4828542;29;20026;-89
2022/02/21 06:27:00;;;;;;;19.42;11.60;;;;;;;;;;4828177;29;20518;-89
2022/02/21 06:29:26;;;;;;;26.55;12.38;;;;;;;;;;4827328;29;20026;-83
2022/02/21 06:31:52;;;;;;;18.58;11.50;;;;;;;;;;4843691;29;20040;-88
2022/02/21 06:34:18;;;;;;;21.05;11.85;;;;;;;;;;4827364;29;20030;-87
2022/02/21 06:36:44;;;;;;;20.60;11.10;;;;;;;;;;4862432;29;20041;-79
2022/02/21 06:39:10;;;;;;;19.73;10.90;;;;;;;;;;4847099;29;20482;-83
2022/02/21 06:41:36;;;;;;;20.55;12.45;;;;;;;;;;4845213;29;20037;-82
2022/02/21 06:44:04;;;;;;;21.58;11.98;;;;;;;;;;4845278;29;20021;-81
2022/02/21 06:46:30;;;;;;;19.83;11.07;;;;;;;;;;4862228;29;20037;-80
2022/02/21 06:48:56;;;;;;;21.48;11.27;;;;;;;;;;4847696;29;20042;-79
2022/02/21 06:51:22;;;;;;;23.90;11.35;;;;;;;;;;4846763;29;20042;-79
2022/02/21 06:53:48;;;;;;;19.50;10.95;;;;;;;;;;4845281;29;20402;-83
2022/02/21 06:56:15;;;;;;;18.98;10.60;;;;;;;;;;4844888;29;20040;-81
2022/02/21 06:58:42;;;;;;;22.00;10.50;;;;;;;;;;4844677;29;20479;-76
2022/02/21 07:01:08;;;;;;;20.52;11.18;;;;;;;;;;4848064;29;20100;-77
2022/02/21 07:03:35;;;;;;;17.85;10.70;;;;;;;;;;4825929;29;20030;-77
2022/02/21 07:06:02;;;;;;;23.45;11.77;;;;;;;;;;4842516;29;20045;-78
2022/02/21 07:08:28;;;;;;;20.45;11.77;;;;;;;;;;4826140;29;20091;-78
2022/02/21 07:10:54;;;;;;;23.30;12.45;;;;;;;;;;4826386;29;20387;-78
2022/02/21 07:13:21;;;;;;;21.98;12.65;;;;;;;;;;4828348;29;20037;-79
2022/02/21 07:15:47;;;;;;;21.65;11.85;;;;;;;;;;4831762;29;20034;-87
2022/02/21 07:18:13;;;;;;;22.98;11.93;;;;;;;;;;4830346;29;20034;-88
2022/02/21 07:20:39;;;;;;;21.48;11.85;;;;;;;;;;4830550;29;20030;-78
2022/02/21 07:23:05;;;;;;;19.77;11.65;;;;;;;;;;4826569;29;20036;-82
2022/02/21 07:25:31;;;;;;;21.77;12.30;;;;;;;;;;4826912;29;20029;-78
2022/02/21 07:27:58;;;;;;;25.48;13.20;;;;;;;;;;4829694;29;20548;-78
2022/02/21 07:30:26;;;;;;;25.85;14.23;;;;;;;;;;4831902;29;20030;-79
2022/02/21 07:32:52;;;;;;;22.63;13.75;;;;;;;;;;4833396;29;20026;-81
2022/02/21 07:35:18;;;;;;;23.92;13.60;;;;;;;;;;4831151;29;20034;-81
2022/02/21 07:37:45;;;;;;;23.10;12.73;;;;;;;;;;4829685;29;20078;-79
2022/02/21 07:40:11;;;;;;;22.33;12.45;;;;;;;;;;4846553;29;20072;-79
2022/02/21 07:42:39;;;;;;;22.33;12.77;;;;;;;;;;4829347;29;20491;-85
2022/02/21 07:45:06;;;;;;;25.63;13.18;;;;;;;;;;4829739;29;20034;-87
2022/02/21 07:47:32;;;;;;;25.70;13.68;;;;;;;;;;4829982;29;20512;-79
2022/02/21 07:49:58;;;;;;;26.52;14.55;;;;;;;;;;4846066;29;20036;-80
2022/02/21 07:52:26;;;;;;;24.88;13.20;;;;;;;;;;4846198;29;20038;-81
2022/02/21 07:54:52;;;;;;;30.35;15.30;;;;;;;;;;4833212;29;20125;-79
2022/02/21 07:57:18;;;;;;;27.92;14.60;;;;;;;;;;4853520;29;20041;-80
2022/02/21 07:59:44;;;;;;;27.63;14.15;;;;;;;;;;4829706;29;20506;-84
2022/02/21 08:02:10;;;;;;;28.23;13.05;;;;;;;;;;4830124;29;20030;-81
2022/02/21 08:04:37;;;;;;;27.42;13.82;;;;;;;;;;4849634;29;20026;-81
2022/02/21 08:07:06;;;;;;;31.92;15.73;;;;;;;;;;4848618;29;20030;-81
2022/02/21 08:09:34;;;;;;;35.55;16.38;;;;;;;;;;4830250;29;20030;-86
2022/02/21 08:12:00;;;;;;;25.40;13.55;;;;;;;;;;4845975;29;20100;-79
2022/02/21 08:14:27;;;;;;;30.88;15.80;;;;;;;;;;4828880;29;20036;-80
2022/02/21 08:16:53;;;;;;;30.10;15.10;;;;;;;;;;4829058;29;20042;-83
2022/02/21 08:19:19;;;;;;;30.90;16.08;;;;;;;;;;4828925;29;20487;-79
2022/02/21 08:21:45;;;;;;;25.42;12.60;;;;;;;;;;4828640;29;20045;-78
2022/02/21 08:24:12;;;;;;;25.33;14.07;;;;;;;;;;4845220;29;20054;-79
2022/02/21 08:26:39;;;;;;;23.58;13.05;;;;;;;;;;4845074;29;20512;-80
2022/02/21 08:29:05;;;;;;;27.13;14.35;;;;;;;;;;4845204;29;20034;-80
2022/02/21 08:31:31;;;;;;;26.42;13.60;;;;;;;;;;4828620;29;20030;-78
2022/02/21 08:33:57;;;;;;;30.38;17.35;;;;;;;;;;4845090;29;20026;-84
2022/02/21 08:36:24;;;;;;;30.73;16.80;;;;;;;;;;4828640;29;20522;-81
2022/02/21 08:38:50;;;;;;;23.98;12.52;;;;;;;;;;4827850;29;20030;-82
2022/02/21 08:44:05;;;;;;;21.60;12.52;;;;;;;;;;4840549;29;20050;-86
2022/02/21 08:46:31;;;;;;;23.35;13.23;;;;;;;;;;4865639;29;20033;-82
2022/02/21 08:48:58;;;;;;;27.60;14.30;;;;;;;;;;4848956;29;20577;-86
2022/02/21 08:51:25;;;;;;;24.17;13.75;;;;;;;;;;4857321;29;20463;-83
2022/02/21 08:53:51;;;;;;;23.35;13.60;;;;;;;;;;4847927;29;20054;-87
2022/02/21 08:56:17;;;;;;;25.45;13.40;;;;;;;;;;4847290;29;20048;-79
2022/02/21 08:58:43;;;;;;;26.92;13.45;;;;;;;;;;4863461;29;20029;-82
2022/02/21 09:01:12;;;;;;;22.42;11.93;;;;;;;;;;4846862;29;20026;-80
2022/02/21 09:03:40;;;;;;;21.52;12.40;;;;;;;;;;4863265;29;20083;-80
2022/02/21 09:06:08;;;;;;;24.20;11.65;;;;;;;;;;4847077;29;20025;-83
2022/02/21 09:08:34;;;;;;;21.13;12.02;;;;;;;;;;4863219;29;20022;-77
2022/02/21 09:11:02;;;;;;;21.23;11.60;;;;;;;;;;4862762;29;20032;-77
2022/02/21 09:13:28;;;;;;;19.80;10.27;;;;;;;;;;4846531;29;20029;-81
2022/02/21 09:15:54;;;;;;;31.42;15.35;;;;;;;;;;4866389;29;20518;-77
2022/02/21 09:18:21;;;;;;;26.15;14.52;;;;;;;;;;4862109;29;20061;-82
2022/02/21 09:20:47;;;;;;;32.00;16.00;;;;;;;;;;4869318;29;20022;-86
2022/02/21 09:23:13;;;;;;;29.15;14.45;;;;;;;;;;4847492;29;20070;-81
2022/02/21 09:25:39;;;;;;;25.83;12.85;;;;;;;;;;4862739;29;20161;-78
2022/02/21 09:28:05;;;;;;;18.17;8.70;;;;;;;;;;4862619;29;20112;-81
2022/02/21 09:30:32;;;;;;;18.60;10.88;;;;;;;;;;4862488;29;20102;-79
2022/02/21 09:32:58;;;;;;;24.55;12.55;;;;;;;;;;4845429;29;20034;-79
2022/02/21 09:35:24;;;;;;;40.97;21.75;;;;;;;;;;4845765;29;20475;-79
2022/02/21 09:37:50;;;;;;;30.42;16.70;;;;;;;;;;4845734;29;20129;-78
2022/02/21 09:40:17;;;;;;;17.90;10.20;;;;;;;;;;4845745;29;20041;-81
2022/02/21 09:42:44;;;;;;;16.20;9.20;;;;;;;;;;4846116;29;20174;-84
2022/02/21 09:45:10;;;;;;;18.08;9.57;;;;;;;;;;4862712;29;20035;-77
2022/02/21 09:47:36;;;;;;;17.80;8.88;;;;;;;;;;4845352;29;20033;-80
2022/02/21 09:50:04;;;;;;;17.35;9.10;;;;;;;;;;4844805;29;20118;-77
2022/02/21 09:52:30;;;;;;;14.45;7.95;;;;;;;;;;4844109;29;20039;-77
2022/02/21 09:54:59;;;;;;;16.65;8.73;;;;;;;;;;4861639;29;20093;-79
2022/02/21 09:57:25;;;;;;;17.60;8.35;;;;;;;;;;4861703;29;20506;-77
2022/02/21 09:59:51;;;;;;;13.88;8.10;;;;;;;;;;4861801;29;20026;-77
2022/02/21 10:02:26;;;;;;;14.10;7.88;;;;;;;;;;4845214;29;20059;-77
2022/02/21 10:05:11;;;;;;;19.52;9.38;;;;;;;;;;4862074;29;20060;-77
2022/02/21 10:07:37;;;;;;;19.65;11.45;;;;;;;;;;4861930;29;20029;-83
2022/02/21 10:10:04;;;;;;;17.08;9.30;;;;;;;;;;4845875;29;20029;-78
2022/02/21 10:12:31;;;;;;;17.30;9.55;;;;;;;;;;4845457;29;20033;-78
2022/02/21 10:15:17;;;;;;;16.15;8.15;;;;;;;;;;4845486;29;20034;-80
2022/02/21 10:17:43;;;;;;;19.98;9.25;;;;;;;;;;4845572;29;20041;-86
2022/02/21 10:20:10;;;;;;;15.38;8.73;;;;;;;;;;4845278;29;20050;-86
2022/02/21 10:22:36;;;;;;;16.35;8.95;;;;;;;;;;4845346;29;20087;-78
2022/02/21 10:25:16;;;;;;;16.98;9.50;;;;;;;;;;4845386;29;20025;-82
2022/02/21 10:27:42;;;;;;;19.02;9.88;;;;;;;;;;4845472;29;20022;-79
2022/02/21 10:30:16;;;;;;;15.35;9.52;;;;;;;;;;4846650;29;20061;-84
2022/02/21 10:32:43;;;;;;;18.85;10.20;;;;;;;;;;4849217;29;20033;-78
2022/02/21 10:35:15;;;;;;;19.55;10.40;;;;;;;;;;4844658;29;20033;-77
2022/02/21 10:37:44;;;;;;;19.92;10.90;;;;;;;;;;4844447;29;20041;-77
2022/02/21 10:40:12;;;;;;;21.48;10.80;;;;;;;;;;4827197;29;20037;-81
2022/02/21 10:42:38;;;;;;;20.08;10.95;;;;;;;;;;4827548;29;20038;-79
2022/02/21 10:45:11;;;;;;;20.42;10.27;;;;;;;;;;4826730;29;20554;-82
2022/02/21 10:47:38;;;;;;;17.88;10.60;;;;;;;;;;4826141;29;20049;-77
2022/02/21 10:50:04;;;;;;;19.38;10.70;;;;;;;;;;4826499;29;20037;-85
2022/02/21 10:52:35;;;;;;;19.33;10.68;;;;;;;;;;4843619;29;20544;-86
2022/02/21 10:55:01;;;;;;;15.80;7.80;;;;;;;;;;4844856;29;20040;-77
2022/02/21 10:57:28;;;;;;;9.68;5.20;;;;;;;;;;4860991;29;20221;-79
2022/02/21 10:59:55;;;;;;;9.55;4.10;;;;;;;;;;4844917;29;20029;-82
2022/02/21 11:02:22;;;;;;;8.98;3.22;;;;;;;;;;4844386;29;20030;-82
2022/02/21 11:04:48;;;;;;;3.47;1.38;;;;;;;;;;4844817;29;20025;-83
2022/02/21 11:07:15;;;;;;;2.95;0.93;;;;;;;;;;4861290;29;20090;-85
2022/02/21 11:09:42;;;;;;;3.05;1.20;;;;;;;;;;4861529;29;20440;-80
2022/02/21 11:12:09;;;;;;;2.13;1.10;;;;;;;;;;4844444;29;20036;-81
2022/02/21 11:14:38;;;;;;;1.77;0.60;;;;;;;;;;4863469;29;20033;-81
2022/02/21 11:17:05;;;;;;;1.60;0.73;;;;;;;;;;4879226;29;20087;-86
2022/02/21 11:19:32;;;;;;;4.97;0.88;;;;;;;;;;4863661;29;20036;-85
2022/02/21 11:21:58;;;;;;;1.25;0.50;;;;;;;;;;4879741;29;20462;-84
2022/02/21 11:24:26;;;;;;;1.63;0.65;;;;;;;;;;4863377;29;20033;-82
2022/02/21 11:26:52;;;;;;;0.90;0.40;;;;;;;;;;4879816;29;20029;-79
2022/02/21 11:29:25;;;;;;;2.67;0.35;;;;;;;;;;4879647;29;20501;-78
2022/02/21 11:31:53;;;;;;;3.33;0.52;;;;;;;;;;4880117;29;20518;-84
2022/02/21 11:34:19;;;;;;;0.80;0.30;;;;;;;;;;4879570;29;20033;-83
2022/02/21 11:36:57;;;;;;;2.28;0.50;;;;;;;;;;4863921;29;20508;-79
2022/02/21 11:39:24;;;;;;;1.35;0.40;;;;;;;;;;4864232;29;20122;-80
2022/02/21 11:42:05;;;;;;;1.23;0.30;;;;;;;;;;4881742;29;20044;-81
2022/02/21 11:44:53;;;;;;;1.63;0.50;;;;;;;;;;4865609;29;20029;-79
2022/02/21 11:47:38;;;;;;;1.00;0.40;;;;;;;;;;4866814;29;20029;-77
2022/02/21 11:50:25;;;;;;;1.20;0.40;;;;;;;;;;4863611;29;20037;-82
2022/02/21 11:52:56;;;;;;;1.23;0.22;;;;;;;;;;4858674;29;20049;-79
2022/02/21 11:55:38;;;;;;;1.50;0.32;;;;;;;;;;4844306;29;20068;-76
2022/02/21 11:58:17;;;;;;;2.15;0.50;;;;;;;;;;4860991;29;20041;-88
2022/02/21 12:00:46;;;;;;;0.98;0.40;;;;;;;;;;4844175;29;20058;-77
2022/02/21 12:03:15;;;;;;;1.02;0.30;;;;;;;;;;4844125;29;20443;-82
2022/02/21 12:05:45;;;;;;;0.75;0.30;;;;;;;;;;4844218;29;20036;-77
2022/02/21 12:08:29;;;;;;;0.70;0.30;;;;;;;;;;4844182;29;20446;-77
2022/02/21 12:11:07;;;;;;;0.40;0.20;;;;;;;;;;4845661;29;20034;-78
2022/02/21 12:13:56;;;;;;;2.25;0.30;;;;;;;;;;4847404;29;20086;-82
2022/02/21 12:16:23;;;;;;;1.15;0.30;;;;;;;;;;4837389;29;20041;-79
2022/02/21 12:18:57;;;;;;;0.85;0.20;;;;;;;;;;4846731;29;20131;-76
2022/02/21 12:21:32;;;;;;;0.35;0.20;;;;;;;;;;4846878;29;20112;-82
2022/02/21 12:24:01;;;;;;;1.38;0.20;;;;;;;;;;4846810;29;20072;-77
2022/02/21 12:26:27;;;;;;;0.57;0.20;;;;;;;;;;4846756;29;20026;-76
2022/02/21 12:29:09;;;;;;;1.65;0.20;;;;;;;;;;4863458;29;20037;-78
2022/02/21 12:31:41;;;;;;;1.02;0.30;;;;;;;;;;4863408;29;20502;-76
2022/02/21 12:34:08;;;;;;;0.50;0.20;;;;;;;;;;4846527;29;20040;-77
2022/02/21 12:36:35;;;;;;;2.28;0.30;;;;;;;;;;4846499;29;20063;-76
2022/02/21 12:39:01;;;;;;;0.55;0.20;;;;;;;;;;4836088;29;20041;-83
2022/02/21 12:41:32;;;;;;;1.40;0.38;;;;;;;;;;4844687;29;20033;-78
2022/02/21 12:44:00;;;;;;;0.75;0.35;;;;;;;;;;4844421;29;20026;-77
2022/02/21 12:46:30;;;;;;;2.63;0.35;;;;;;;;;;4827973;29;20522;-77
2022/02/21 12:48:57;;;;;;;2.28;0.50;;;;;;;;;;4828108;29;20433;-77
2022/02/21 12:51:27;;;;;;;1.35;0.35;;;;;;;;;;4828097;29;20399;-85
2022/02/21 12:53:54;;;;;;;1.13;0.30;;;;;;;;;;4856210;29;20128;-85
2022/02/21 12:56:20;;;;;;;0.90;0.40;;;;;;;;;;4863199;29;20034;-86
2022/02/21 12:58:50;;;;;;;0.85;0.22;;;;;;;;;;4847244;29;20026;-85
2022/02/21 13:01:20;;;;;;;0.55;0.20;;;;;;;;;;4846273;29;20038;-83
2022/02/21 13:03:52;;;;;;;1.13;0.25;;;;;;;;;;4863296;29;20037;-80
2022/02/21 13:06:18;;;;;;;0.82;0.20;;;;;;;;;;4845900;29;20029;-80
2022/02/21 13:08:44;;;;;;;0.80;0.20;;;;;;;;;;4863088;29;20105;-86
2022/02/21 13:11:10;;;;;;;0.95;0.38;;;;;;;;;;4863251;29;20029;-84
2022/02/21 13:13:46;;;;;;;0.68;0.17;;;;;;;;;;4847302;29;20029;-87
2022/02/21 13:16:12;;;;;;;1.67;0.28;;;;;;;;;;4846984;29;20033;-83
2022/02/21 13:19:00;;;;;;;1.25;0.68;;;;;;;;;;4846358;29;20050;-82
2022/02/21 13:21:44;;;;;;;0.65;0.20;;;;;;;;;;4846552;29;20436;-78
2022/02/21 13:24:17;;;;;;;1.42;0.40;;;;;;;;;;4845489;29;20033;-81
2022/02/21 13:26:57;;;;;;;0.75;0.30;;;;;;;;;;4846378;29;20085;-87
2022/02/21 13:29:25;;;;;;;1.15;0.30;;;;;;;;;;4845873;29;20078;-80
2022/02/21 13:31:51;;;;;;;1.38;0.32;;;;;;;;;;4862733;29;20054;-81
2022/02/21 13:34:17;;;;;;;3.40;0.45;;;;;;;;;;4862562;29;20037;-78
2022/02/21 13:36:44;;;;;;;0.75;0.30;;;;;;;;;;4846022;29;20044;-78
2022/02/21 13:39:19;;;;;;;1.08;0.40;;;;;;;;;;4857434;29;20052;-78
2022/02/21 13:41:47;;;;;;;4.13;1.05;;;;;;;;;;4881403;29;20029;-78
2022/02/21 13:44:23;;;;;;;2.92;0.50;;;;;;;;;;4881224;29;20033;-78
2022/02/21 13:46:49;;;;;;;1.00;0.30;;;;;;;;;;4879857;29;20036;-79
2022/02/21 13:49:15;;;;;;;2.13;0.50;;;;;;;;;;4880757;29;20112;-78
2022/02/21 13:51:41;;;;;;;1.08;0.30;;;;;;;;;;4866255;29;20029;-80
2022/02/21 13:54:29;;;;;;;4.03;0.80;;;;;;;;;;4866218;29;20049;-78
2022/02/21 13:57:11;;;;;;;1.17;0.38;;;;;;;;;;4845068;29;20034;-79
2022/02/21 13:59:45;;;;;;;1.85;0.70;;;;;;;;;;4845159;29;20082;-79
2022/02/21 14:02:20;;;;;;;2.13;0.63;;;;;;;;;;4845442;29;20034;-84
2022/02/21 14:04:47;;;;;;;1.90;0.28;;;;;;;;;;4861569;29;20033;-80
2022/02/21 14:07:13;;;;;;;1.30;0.43;;;;;;;;;;4861862;29;20135;-83
2022/02/21 14:09:39;;;;;;;2.97;0.65;;;;;;;;;;4862104;29;20030;-81
2022/02/21 14:12:15;;;;;;;2.00;0.40;;;;;;;;;;4862168;29;20433;-77
2022/02/21 14:14:42;;;;;;;3.30;0.30;;;;;;;;;;4844852;29;20033;-78
2022/02/21 14:17:08;;;;;;;0.75;0.17;;;;;;;;;;4844652;29;20045;-78
2022/02/21 14:19:34;;;;;;;1.88;0.40;;;;;;;;;;4845283;29;20052;-82
2022/02/21 14:22:00;;;;;;;2.05;0.40;;;;;;;;;;4861823;29;20064;-79
2022/02/21 14:24:27;;;;;;;3.45;0.50;;;;;;;;;;4845168;29;20025;-84
2022/02/21 14:26:54;;;;;;;3.28;0.52;;;;;;;;;;4851014;29;20036;-85
2022/02/21 14:29:20;;;;;;;2.88;0.47;;;;;;;;;;4846702;29;20033;-78
2022/02/21 14:31:47;;;;;;;3.40;0.50;;;;;;;;;;4845152;29;20475;-82